Terminal Aerodrome Forecast
Issued by NWS Anchorage, AK

Home | Current Version | Previous Version | Text Only | Print | Product List | Glossary On
Versions: 1 2 3 4 5 6 7 8 9 10 11 12 13 14 15 16 17 18 19 20 21 22 23 24 25 26 27 28
000
FTAK31 PANC 192336
TAFANC
TAF
PANC 192336Z 2000/2106 06005KT 6SM BR SCT003
      TEMPO 2000/2004 2SM BR BKN003
     FM202000 04008KT P6SM SCT005 BKN025
     FM210500 36004KT 5SM -SN OVC025=

USA.gov is the U.S. government's official web portal to all federal, state and local government web resources and services.